»·PEaware :: SOO578 KLAS-KDEN

SOO578 :: KLAS-KDEN

FLIGHT INFORMATION

Flight Status: Arrived
Operator: Unknown
More flights by this operator :: More flights under this callsign
Pilot: Max H. (24278)
Aircraft: Unknown
(B77F)
More flights by this aircraft type
Origin: KLAS McCarran Intl
United States
Destination: KDEN Denver Intl
United States
More flights between these airports :: More routes between these airports
Route: TRALR9 DVC WOLLF TELLR2
File this flight plan on PilotEdge
Remarks:
Altitude:
(Current/Filed)
39,000ft
Speed:
(Current/Filed)
350kts
Departed: 28-Apr-19 04:28 PM
Arrived: 28-Apr-19 05:50 PM
Distance/Time
Traveled:
544nm/1:22
Distance/Time
To Go:
Arrived

Flight Plot

Page will automatically refresh every two minutes.

Flight plan parsing failed; only flown route is shown


Map Options




Map Legend


Flown Route
Filed Route
Departure Airport
Arrival Airport
Navaid (VOR, NDB)
Fix

Horizontal Profiles

Position Reports

Time Latitude Longitude Heading Altitude Ground
Speed
28-Apr-19 16:02 36.082468 -115.124181 2 2195ft 0kts
28-Apr-19 16:03 36.082468 -115.124181 2 2195ft 0kts
28-Apr-19 16:04 36.082468 -115.124181 2 2195ft 0kts
28-Apr-19 16:05 36.082468 -115.124181 2 2195ft 0kts
28-Apr-19 16:06 36.082468 -115.124181 2 2195ft 0kts
28-Apr-19 16:07 36.082468 -115.124181 2 2195ft 0kts
28-Apr-19 16:08 36.082468 -115.124181 2 2195ft 0kts
28-Apr-19 16:09 36.082468 -115.124181 2 2195ft 0kts
28-Apr-19 16:10 36.082468 -115.124181 2 2195ft 0kts
28-Apr-19 16:11 36.082468 -115.124181 2 2195ft 0kts
28-Apr-19 16:12 36.082469 -115.124181 2 2195ft 0kts
28-Apr-19 16:13 36.082469 -115.124181 2 2195ft 0kts
28-Apr-19 16:14 36.082416 -115.126388 173 2195ft 20kts
28-Apr-19 16:15 36.080101 -115.126342 180 2194ft 2kts
28-Apr-19 16:16 36.079959 -115.126347 181 2194ft 0kts
28-Apr-19 16:17 36.079958 -115.126347 181 2194ft 0kts
28-Apr-19 16:18 36.079863 -115.126351 181 2194ft 1kts
28-Apr-19 16:19 36.079456 -115.126365 181 2195ft 10kts
28-Apr-19 16:20 36.078223 -115.124332 90 2194ft 5kts
28-Apr-19 16:21 36.078130 -115.123272 115 2194ft 0kts
28-Apr-19 16:22 36.078130 -115.123272 115 2194ft 0kts
28-Apr-19 16:23 36.078130 -115.123272 115 2194ft 0kts
28-Apr-19 16:24 36.078130 -115.123272 115 2194ft 0kts
28-Apr-19 16:25 36.078130 -115.123272 115 2194ft 0kts
28-Apr-19 16:26 36.076690 -115.121240 195 2194ft 6kts
28-Apr-19 16:27 36.076349 -115.123067 270 2194ft 42kts
28-Apr-19 16:28 36.076440 -115.182425 267 5163ft 215kts
28-Apr-19 16:29 36.059132 -115.262798 219 7053ft 278kts
28-Apr-19 16:30 35.984911 -115.293066 191 7030ft 279kts
28-Apr-19 16:31 35.906867 -115.278419 164 10387ft 294kts
28-Apr-19 16:32 35.860748 -115.189931 86 13830ft 376kts
28-Apr-19 16:33 35.876615 -115.056550 72 17846ft 409kts
28-Apr-19 16:34 35.927797 -114.928094 59 18716ft 420kts
28-Apr-19 16:35 35.981088 -114.799964 65 18714ft 419kts
28-Apr-19 16:36 36.030714 -114.669453 64 19606ft 423kts
28-Apr-19 16:37 36.083696 -114.533033 64 23216ft 455kts
28-Apr-19 16:38 36.139491 -114.387179 65 26373ft 487kts
28-Apr-19 16:39 36.192466 -114.228323 78 29266ft 512kts
28-Apr-19 16:40 36.217010 -114.051451 85 31840ft 531kts
28-Apr-19 16:41 36.237594 -113.871220 85 34779ft 527kts
28-Apr-19 16:42 36.258895 -113.692121 85 37253ft 522kts
28-Apr-19 16:43 36.279771 -113.514242 85 38859ft 522kts
28-Apr-19 16:44 36.299687 -113.336452 85 38872ft 520kts
28-Apr-19 16:45 36.333331 -113.161634 68 38885ft 527kts
28-Apr-19 16:46 36.395890 -112.997278 65 38893ft 527kts
28-Apr-19 16:47 36.457062 -112.832159 66 38922ft 527kts
28-Apr-19 16:48 36.518668 -112.666786 66 38921ft 526kts
28-Apr-19 16:49 36.579453 -112.501039 66 38915ft 527kts
28-Apr-19 16:50 36.639910 -112.335045 66 38904ft 527kts
28-Apr-19 16:51 36.700136 -112.168741 66 38896ft 526kts
28-Apr-19 16:52 36.760139 -112.002192 66 38877ft 526kts
28-Apr-19 16:53 36.819923 -111.835326 66 38844ft 528kts
28-Apr-19 16:54 36.879594 -111.667858 66 38810ft 529kts
28-Apr-19 16:55 36.939251 -111.499502 66 38791ft 529kts
28-Apr-19 16:56 36.998533 -111.331269 66 38792ft 530kts
28-Apr-19 16:57 37.057900 -111.161861 66 38804ft 530kts
28-Apr-19 16:58 37.116958 -110.992366 66 38818ft 531kts
28-Apr-19 16:59 37.175812 -110.822513 66 38831ft 531kts
28-Apr-19 17:00 37.234456 -110.652304 66 38841ft 532kts
28-Apr-19 17:01 37.292858 -110.481798 66 38857ft 533kts
28-Apr-19 17:02 37.351312 -110.310187 66 38870ft 533kts
28-Apr-19 17:03 37.409433 -110.138509 66 38886ft 534kts
28-Apr-19 17:04 37.467371 -109.966443 66 38903ft 535kts
28-Apr-19 17:05 37.525052 -109.794099 66 38916ft 535kts
28-Apr-19 17:06 37.582723 -109.620759 66 38926ft 535kts
28-Apr-19 17:07 37.640085 -109.447319 67 38929ft 535kts
28-Apr-19 17:08 37.697289 -109.273953 66 38924ft 535kts
28-Apr-19 17:09 37.754133 -109.100015 67 38914ft 535kts
28-Apr-19 17:10 37.811321 -108.926663 62 38907ft 535kts
28-Apr-19 17:11 37.888230 -108.765964 55 38910ft 533kts
28-Apr-19 17:12 37.966668 -108.606686 56 38924ft 534kts
28-Apr-19 17:13 38.044864 -108.446508 55 38949ft 534kts
28-Apr-19 17:14 38.122695 -108.285505 56 38963ft 534kts
28-Apr-19 17:15 38.199987 -108.124550 56 38981ft 533kts
28-Apr-19 17:16 38.276970 -107.963425 56 38960ft 534kts
28-Apr-19 17:17 38.354018 -107.802013 56 38947ft 534kts
28-Apr-19 17:18 38.430706 -107.639303 56 38949ft 535kts
28-Apr-19 17:19 38.505781 -107.474517 58 38985ft 537kts
28-Apr-19 17:20 38.579917 -107.308037 57 38966ft 539kts
28-Apr-19 17:21 38.653701 -107.143056 57 37989ft 527kts
28-Apr-19 17:22 38.725448 -106.982418 57 36433ft 512kts
28-Apr-19 17:23 38.794650 -106.825335 57 34931ft 501kts
28-Apr-19 17:24 38.862263 -106.670912 57 33459ft 490kts
28-Apr-19 17:25 38.930965 -106.523158 56 32045ft 477kts
28-Apr-19 17:26 38.997686 -106.378169 56 30686ft 465kts
28-Apr-19 17:27 39.062147 -106.236775 56 29316ft 453kts
28-Apr-19 17:28 39.123692 -106.099865 57 26794ft 433kts
28-Apr-19 17:29 39.182300 -105.967744 57 23880ft 420kts
28-Apr-19 17:30 39.240060 -105.836538 58 21265ft 422kts
28-Apr-19 17:31 39.298626 -105.702567 58 19979ft 432kts
28-Apr-19 17:32 39.356457 -105.570460 58 19435ft 403kts
28-Apr-19 17:33 39.397237 -105.438991 79 18581ft 408kts
28-Apr-19 17:34 39.403218 -105.292069 87 16445ft 393kts
28-Apr-19 17:35 39.412858 -105.163578 67 14642ft 346kts
28-Apr-19 17:36 39.480230 -105.085840 28 13181ft 313kts
28-Apr-19 17:37 39.544998 -105.024912 46 12856ft 314kts
28-Apr-19 17:38 39.587691 -104.920767 60 11334ft 325kts
28-Apr-19 17:39 39.626963 -104.820423 60 11040ft 315kts
28-Apr-19 17:40 39.667209 -104.716077 60 11020ft 323kts
28-Apr-19 17:41 39.703124 -104.621803 60 11010ft 258kts
28-Apr-19 17:43 39.735676 -104.536401 61 11011ft 284kts
28-Apr-19 17:44 39.746590 -104.439555 78 10994ft 260kts
28-Apr-19 17:45 39.797071 -104.389300 351 9246ft 234kts
28-Apr-19 17:46 39.847117 -104.438045 309 8036ft 229kts
28-Apr-19 17:47 39.876436 -104.506177 285 7120ft 193kts
28-Apr-19 17:48 39.876479 -104.566256 275 6216ft 125kts
28-Apr-19 17:49 39.877174 -104.609180 277 5631ft 121kts
28-Apr-19 17:50 39.877395 -104.642547 267 5445ft 25kts
28-Apr-19 17:51 39.875825 -104.648752 271 5444ft 13kts
28-Apr-19 17:52 39.875866 -104.653161 269 5444ft 10kts
28-Apr-19 17:53 39.875883 -104.656626 269 5444ft 9kts
28-Apr-19 17:54 39.875926 -104.661018 272 5444ft 12kts
28-Apr-19 17:55 39.872564 -104.662135 180 5444ft 9kts
28-Apr-19 17:56 39.871139 -104.662180 182 5444ft 10kts
28-Apr-19 17:57 39.869536 -104.662189 180 5444ft 10kts
28-Apr-19 17:58 39.861869 -104.662333 182 5444ft 63kts
28-Apr-19 17:59 39.853413 -104.662389 182 5444ft 12kts
28-Apr-19 17:59 39.849018 -104.662461 182 5444ft 29kts
28-Apr-19 18:01 39.839678 -104.662581 181 5444ft 32kts
28-Apr-19 18:02 39.831495 -104.662653 180 5444ft 27kts
28-Apr-19 18:02 39.829355 -104.666662 268 5444ft 32kts
28-Apr-19 18:03 39.830079 -104.673957 311 5444ft 7kts

Navigation Log

Ident Type
Flight plan parsing failed, navigation log unavailable